createdAt,value
2018-01-31T01:55:14.852Z,86.60
2018-01-31T01:59:17.347Z,86.50
2018-01-31T02:03:20.631Z,86.70
2018-01-31T02:07:23.148Z,86.50
2018-01-31T02:11:26.461Z,86.60
2018-01-31T02:15:28.995Z,86.60
2018-01-31T02:19:31.525Z,86.60
2018-01-31T02:23:34.817Z,86.50
2018-01-31T02:27:38.188Z,86.50
2018-01-31T02:31:40.713Z,86.50
2018-01-31T02:35:44.004Z,86.60
2018-01-31T02:40:01.391Z,86.50
2018-01-31T02:44:03.910Z,86.80
2018-01-31T02:48:06.423Z,87.40
2018-01-31T02:52:09.723Z,87.80
2018-01-31T02:56:12.989Z,87.80
2018-01-31T03:00:15.517Z,87.80
2018-01-31T03:04:18.801Z,88.10
2018-01-31T03:08:21.311Z,88.10
2018-01-31T03:12:24.583Z,88.40
2018-01-31T03:16:27.129Z,88.40
2018-01-31T03:20:29.646Z,88.40
2018-01-31T03:24:32.463Z,88.50
2018-01-31T03:28:35.723Z,88.70
2018-01-31T03:32:38.260Z,88.70
2018-01-31T03:36:41.537Z,89.00
2018-01-31T03:40:44.333Z,89.00
2018-01-31T03:44:46.835Z,88.90
2018-01-31T03:48:50.179Z,88.80
2018-01-31T03:52:52.796Z,88.70
2018-01-31T03:56:55.314Z,88.60
2018-01-31T04:00:58.601Z,88.70
2018-01-31T04:05:01.128Z,88.70
2018-01-31T04:09:03.648Z,88.60
2018-01-31T04:13:06.178Z,88.70
2018-01-31T04:17:09.469Z,88.70
2018-01-31T04:21:12.005Z,88.60
2018-01-31T04:25:14.554Z,88.70
2018-01-31T04:29:17.838Z,88.50
2018-01-31T04:33:20.360Z,88.40
2018-01-31T04:37:22.874Z,88.50
2018-01-31T04:41:25.396Z,88.50
2018-01-31T04:45:27.960Z,88.50
2018-01-31T04:49:30.476Z,87.80
2018-01-31T04:53:33.016Z,88.80
2018-01-31T04:57:35.550Z,88.90
2018-01-31T05:01:38.069Z,88.70
2018-01-31T05:05:40.575Z,88.50
2018-01-31T05:09:43.162Z,88.10
2018-01-31T05:13:45.655Z,87.80
2018-01-31T05:17:48.171Z,87.60
2018-01-31T05:21:50.726Z,87.50
2018-01-31T05:25:53.257Z,87.20
2018-01-31T05:29:56.524Z,87.00
2018-01-31T05:33:59.041Z,86.90
2018-01-31T05:38:01.565Z,86.80
2018-01-31T05:42:04.090Z,86.60
2018-01-31T05:46:06.608Z,86.30
2018-01-31T05:50:09.958Z,86.30
2018-01-31T05:54:12.592Z,86.30
2018-01-31T05:58:16.020Z,86.30
2018-01-31T06:02:19.256Z,86.30
2018-01-31T06:06:38.220Z,86.60
2018-01-31T06:10:41.906Z,86.60
2018-01-31T06:14:44.403Z,86.60
2018-01-31T06:18:46.919Z,86.80
2018-01-31T06:22:49.429Z,86.80
2018-01-31T06:26:51.977Z,86.80
2018-01-31T06:30:54.493Z,86.80
2018-01-31T06:34:57.017Z,86.90
2018-01-31T06:39:04.224Z,87.10
2018-01-31T06:43:08.710Z,87.00
2018-01-31T06:47:21.724Z,87.60
2018-01-31T06:51:28.359Z,88.20
2018-01-31T06:55:35.568Z,89.30
2018-01-31T06:59:44.099Z,89.30
2018-01-31T07:03:49.964Z,89.80
2018-01-31T07:07:53.956Z,89.80
2018-01-31T07:11:57.243Z,90.10
2018-01-31T07:15:59.739Z,90.00
2018-01-31T07:20:04.519Z,90.60
2018-01-31T07:24:11.165Z,90.20
2018-01-31T07:28:20.033Z,90.30
2018-01-31T07:32:22.592Z,90.30
2018-01-31T07:36:25.855Z,90.40
2018-01-31T07:40:28.390Z,90.40
2018-01-31T07:44:30.940Z,90.60
2018-01-31T07:48:33.462Z,90.80
2018-01-31T07:52:36.268Z,91.00
2018-01-31T07:56:38.795Z,91.30
2018-01-31T08:00:41.310Z,91.50
2018-01-31T08:04:44.594Z,91.80
2018-01-31T08:08:47.120Z,91.70
2018-01-31T08:12:49.652Z,91.80
2018-01-31T08:16:52.158Z,91.90
2018-01-31T08:20:54.714Z,92.00
2018-01-31T08:24:57.218Z,92.10
2018-01-31T08:29:00.031Z,92.30
2018-01-31T08:33:03.309Z,92.30
2018-01-31T08:37:05.837Z,92.30
2018-01-31T08:41:09.095Z,92.50
2018-01-31T08:45:11.623Z,92.50
2018-01-31T08:49:14.905Z,92.60
2018-01-31T08:53:17.445Z,92.70
2018-01-31T08:57:19.945Z,92.80
2018-01-31T09:01:22.477Z,92.90
2018-01-31T09:05:25.740Z,93.00
2018-01-31T09:09:28.271Z,93.00
2018-01-31T09:13:31.560Z,93.10
2018-01-31T09:17:34.872Z,93.10
2018-01-31T09:21:38.158Z,93.10
2018-01-31T09:25:40.692Z,93.10
2018-01-31T09:29:43.292Z,93.20
2018-01-31T09:33:45.810Z,93.20
2018-01-31T09:37:48.345Z,93.30
2018-01-31T09:41:50.914Z,93.40
2018-01-31T09:45:54.198Z,93.70
2018-01-31T09:49:56.743Z,93.60
2018-01-31T09:53:59.239Z,93.90
2018-01-31T09:58:01.792Z,93.90
2018-01-31T10:02:04.333Z,94.00
2018-01-31T10:06:06.884Z,94.10
2018-01-31T10:10:09.396Z,94.30
2018-01-31T10:14:11.913Z,94.40
2018-01-31T10:18:15.196Z,94.50
2018-01-31T10:22:17.711Z,94.50
2018-01-31T10:26:20.997Z,94.30
2018-01-31T10:30:23.547Z,94.30
2018-01-31T10:34:26.087Z,94.00
2018-01-31T10:38:28.717Z,93.60
2018-01-31T10:42:31.215Z,93.30
2018-01-31T10:46:34.040Z,93.00
2018-01-31T10:50:37.398Z,92.50
2018-01-31T10:58:42.483Z,92.20
2018-01-31T11:02:45.279Z,92.30
2018-01-31T11:06:47.854Z,92.30
2018-01-31T11:10:50.376Z,92.30
2018-01-31T11:14:52.920Z,92.20
2018-01-31T11:18:55.489Z,92.30
2018-01-31T11:22:58.034Z,92.20
2018-01-31T11:27:00.548Z,92.20
2018-01-31T11:31:03.094Z,92.00
2018-01-31T11:35:08.350Z,92.00
2018-01-31T11:39:11.169Z,91.90
2018-01-31T11:43:14.072Z,91.90
2018-01-31T11:47:16.593Z,91.80
2018-01-31T11:51:22.336Z,91.50
2018-01-31T11:55:25.409Z,91.60
2018-01-31T11:59:27.964Z,91.70
2018-01-31T12:03:30.483Z,91.40
2018-01-31T12:07:33.059Z,91.60
2018-01-31T12:11:35.576Z,91.60
2018-01-31T12:15:38.892Z,91.00
2018-01-31T12:20:06.997Z,90.80
2018-01-31T12:24:21.504Z,90.70
2018-01-31T12:28:35.789Z,90.70
2018-01-31T12:32:51.145Z,91.00
2018-01-31T12:37:05.465Z,90.70
2018-01-31T12:41:07.541Z,90.70
2018-01-31T12:45:09.573Z,90.40
2018-01-31T12:49:23.693Z,90.40
2018-01-31T12:53:38.261Z,90.60
2018-01-31T12:57:52.737Z,90.60
2018-01-31T13:06:45.670Z,90.70
2018-01-31T13:11:00.428Z,90.80
2018-01-31T13:15:29.871Z,90.70
2018-01-31T13:19:44.969Z,90.90
2018-01-31T13:23:59.256Z,90.60
2018-01-31T13:28:33.155Z,90.50
2018-01-31T13:33:02.059Z,90.50
2018-01-31T13:37:22.325Z,90.50
2018-01-31T13:41:36.544Z,90.40
2018-01-31T13:45:53.473Z,90.50
2018-01-31T13:50:09.731Z,90.20
2018-01-31T13:54:24.882Z,90.00
2018-01-31T13:58:39.298Z,90.00
2018-01-31T14:02:53.863Z,90.10
2018-01-31T14:07:08.411Z,90.20
2018-01-31T14:11:23.530Z,89.90
2018-01-31T14:15:39.719Z,89.90
2018-01-31T14:19:54.136Z,90.10
2018-01-31T14:24:19.237Z,90.20
2018-01-31T14:28:33.673Z,90.10
2018-01-31T14:32:48.071Z,90.20
2018-01-31T14:36:50.116Z,90.10
2018-01-31T14:40:52.168Z,90.40
2018-01-31T14:44:54.954Z,90.40
2018-01-31T14:48:58.045Z,87.20
2018-01-31T14:53:02.326Z,87.20
2018-01-31T14:57:04.375Z,87.10
2018-01-31T15:01:06.504Z,86.10
2018-01-31T15:05:09.072Z,86.90
2018-01-31T15:09:11.996Z,87.00
2018-01-31T15:13:14.039Z,86.90
2018-01-31T15:17:16.045Z,86.70
2018-01-31T15:21:18.076Z,86.60
2018-01-31T15:25:20.095Z,87.30
2018-01-31T15:29:22.216Z,86.80
2018-01-31T15:33:24.241Z,86.90
2018-01-31T15:37:26.318Z,87.10
2018-01-31T15:41:28.341Z,86.60
2018-01-31T15:45:30.381Z,87.00
2018-01-31T15:49:33.166Z,86.30
2018-01-31T15:53:35.980Z,86.10
2018-01-31T15:57:38.054Z,86.10
2018-01-31T16:01:40.123Z,86.10
2018-01-31T16:05:42.945Z,86.30
2018-01-31T16:09:45.044Z,86.20
2018-01-31T16:13:47.065Z,86.40
2018-01-31T16:17:50.369Z,86.00
2018-01-31T16:21:53.725Z,86.10
2018-01-31T16:25:56.247Z,86.10
2018-01-31T16:30:13.260Z,86.90
2018-01-31T16:34:15.814Z,86.80
2018-01-31T16:38:18.329Z,86.70
2018-01-31T16:42:21.002Z,86.90
2018-01-31T16:46:23.568Z,87.20
2018-01-31T16:50:26.475Z,87.50
2018-01-31T16:54:28.971Z,88.50
2018-01-31T16:58:31.523Z,89.20
2018-01-31T17:02:34.017Z,89.30
2018-01-31T17:06:36.578Z,89.60
2018-01-31T17:10:39.096Z,89.40
2018-01-31T17:14:41.652Z,89.70
2018-01-31T17:18:44.168Z,89.50
2018-01-31T17:22:46.697Z,89.20
2018-01-31T17:26:49.304Z,92.20
2018-01-31T17:30:51.966Z,91.70
2018-01-31T17:34:54.492Z,85.50
2018-01-31T17:38:57.058Z,85.80
2018-01-31T17:43:00.405Z,90.80
2018-01-31T17:47:03.875Z,90.80
2018-01-31T17:51:07.356Z,87.10
2018-01-31T17:55:09.899Z,87.10
2018-01-31T17:59:12.420Z,87.10
2018-01-31T18:03:14.979Z,88.50
2018-01-31T18:11:27.129Z,86.50
2018-01-31T18:15:29.660Z,86.30
2018-01-31T18:19:32.958Z,86.10
2018-01-31T18:23:36.278Z,86.00
2018-01-31T18:27:38.840Z,86.00
2018-01-31T18:31:41.728Z,84.70
2018-01-31T18:35:44.268Z,85.40
2018-01-31T18:39:46.832Z,84.70
2018-01-31T18:43:50.181Z,85.20
2018-01-31T18:47:52.710Z,85.20
2018-01-31T18:51:56.034Z,85.10
2018-01-31T18:55:58.858Z,85.00
2018-01-31T19:00:01.401Z,85.50
2018-01-31T19:04:04.736Z,84.10
2018-01-31T19:08:07.296Z,84.10
2018-01-31T19:12:10.571Z,85.20
2018-01-31T19:16:13.101Z,85.20
2018-01-31T19:20:15.604Z,85.50
2018-01-31T19:24:18.172Z,85.80
2018-01-31T19:28:20.785Z,86.00
2018-01-31T19:32:23.441Z,86.40
2018-01-31T19:36:25.950Z,85.90
2018-01-31T19:40:31.817Z,85.30
2018-01-31T19:44:34.333Z,85.10
2018-01-31T19:48:36.866Z,83.80
2018-01-31T19:52:39.410Z,83.80
2018-01-31T19:56:41.947Z,84.00
2018-01-31T20:00:44.506Z,83.40
2018-01-31T20:04:47.823Z,81.50
2018-01-31T20:08:50.389Z,81.40
2018-01-31T20:12:53.688Z,82.30
2018-01-31T20:16:56.224Z,82.30
2018-01-31T20:20:58.790Z,83.00
2018-01-31T20:25:01.354Z,83.30
2018-01-31T20:29:04.628Z,83.90
2018-01-31T20:33:07.163Z,83.90
2018-01-31T20:37:09.705Z,84.20
2018-01-31T20:41:12.276Z,84.80
2018-01-31T20:45:14.819Z,84.90
2018-01-31T20:49:17.362Z,85.20
2018-01-31T20:53:19.884Z,85.50
2018-01-31T20:57:23.211Z,86.50
2018-01-31T21:01:25.735Z,86.40
2018-01-31T21:05:28.707Z,86.30
2018-01-31T21:09:31.244Z,86.70
2018-01-31T21:13:34.545Z,86.90
2018-01-31T21:17:37.071Z,86.90
2018-01-31T21:21:39.590Z,87.20
2018-01-31T21:25:42.123Z,87.50
2018-01-31T21:29:45.398Z,88.40
2018-01-31T21:33:47.918Z,88.40
2018-01-31T21:37:50.438Z,88.60
2018-01-31T21:41:52.973Z,88.70
2018-01-31T21:45:56.284Z,88.90
2018-01-31T21:49:59.568Z,88.70
2018-01-31T21:54:02.100Z,88.60
2018-01-31T21:58:04.641Z,88.40
2018-01-31T22:02:07.164Z,87.80
2018-01-31T22:06:09.710Z,86.90
2018-01-31T22:10:12.214Z,86.10
2018-01-31T22:14:15.523Z,84.90
2018-01-31T22:18:18.794Z,84.90
2018-01-31T22:22:21.327Z,84.70
2018-01-31T22:26:23.835Z,84.40
2018-01-31T22:30:26.393Z,84.30
2018-01-31T22:34:28.911Z,84.30
2018-01-31T22:38:31.446Z,84.20
2018-01-31T22:42:34.768Z,84.70
2018-01-31T22:46:37.277Z,84.60
2018-01-31T22:50:39.813Z,84.60
2018-01-31T22:54:42.316Z,85.10
2018-01-31T22:58:45.621Z,90.00
2018-01-31T23:02:48.171Z,90.00
2018-01-31T23:06:50.794Z,90.60
2018-01-31T23:10:53.361Z,87.40
2018-01-31T23:14:56.004Z,88.40
2018-01-31T23:18:59.239Z,86.10
2018-01-31T23:23:01.800Z,81.00
2018-01-31T23:27:04.338Z,82.10
2018-01-31T23:31:07.702Z,85.70
2018-01-31T23:35:10.220Z,85.70
2018-01-31T23:39:12.737Z,86.50
2018-01-31T23:43:15.274Z,87.20
2018-01-31T23:47:17.795Z,87.50
2018-01-31T23:51:20.541Z,88.30
2018-01-31T23:55:23.105Z,88.20
2018-01-31T23:59:25.675Z,87.80
